Meteorología y climatología de Navarra
Datos de la estación - Meteo Navarra

Estación de Arangoiti GN

Altitud 1353 m.


Datos desde el 26/03/2020 hasta el 27/03/2020 en horario solar
Los datos son PROVISIONALES

Anterior Página 1 de 1 Siguiente Descargar: Formato para Excel 2000 o superior   Formato csv   Formato para OpenOffice Calc
Fecha Temperatura Humedad relativa Radiación global Insolación Precipitación Vel. viento 10 m Vel. viento 10 m Dir. viento 10 m
ºC % W/m² s l/m² m/s km/h º
26/03/2020 0:00 -2.7 98 0.0 0 0.0 11.4 40.9 3
26/03/2020 0:10 -2.7 98 0.0 0 0.0 11.7 41.9 2
26/03/2020 0:20 -2.6 98 0.0 0 0.0 12.2 43.9 3
26/03/2020 0:30 -2.7 97 0.0 0 0.0 13.0 46.9 7
26/03/2020 0:40 -2.0 94 0.0 0 0.0 14.9 53.6 8
26/03/2020 0:50 -2.2 93 0.0 0 0.0 12.5 45.0 11
26/03/2020 1:00 -2.6 90 0.0 0 0.0 9.7 34.9 11
26/03/2020 1:10 -2.1 97 0.0 0 0.0 9.0 32.3 5
26/03/2020 1:20 -2.0 99 0.0 0 0.0 9.6 34.5 2
26/03/2020 1:30 -1.5 99 0.0 0 0.0 10.0 36.0 4
26/03/2020 1:40 -1.3 99 0.0 0 0.0 9.8 35.4 5
26/03/2020 1:50 -0.5 99 0.0 0 0.0 11.4 41.0 7
26/03/2020 2:00 -1.5 99 0.0 0 0.0 9.1 32.8 9
26/03/2020 2:10 -1.4 99 0.0 0 0.0 8.8 31.7 359
26/03/2020 2:20 -1.1 99 0.0 0 0.0 9.3 33.5 353
26/03/2020 2:30 -0.7 100 0.0 0 0.0 8.2 29.5 351
26/03/2020 2:40 -1.0 99 0.0 0 0.0 8.5 30.5 349
26/03/2020 2:50 -0.7 99 0.0 0 0.0 8.2 29.6 351
26/03/2020 3:00 -0.6 100 0.0 0 0.0 9.0 32.5 353
26/03/2020 3:10 -0.5 100 0.0 0 0.0 8.2 29.3 356
26/03/2020 3:20 -0.5 100 0.0 0 0.0 8.2 29.4 354
26/03/2020 3:30 -0.5 100 0.0 0 0.0 10.0 36.1 356
26/03/2020 3:40 -0.3 99 0.0 0 0.0 10.5 37.7 354
26/03/2020 3:50 -0.4 100 0.0 0 0.0 10.9 39.3 354
26/03/2020 4:00 -0.3 100 0.0 0 0.0 11.2 40.5 352
26/03/2020 4:10 -0.3 100 0.0 0 0.0 10.7 38.4 353
26/03/2020 4:20 -0.3 100 0.0 0 0.0 11.5 41.5 356
26/03/2020 4:30 -0.7 100 0.0 0 0.0 12.8 46.2 1
26/03/2020 4:40 -1.0 99 0.0 0 0.0 12.3 44.4 3
26/03/2020 4:50 -1.0 99 0.0 0 0.0 12.3 44.3 4
26/03/2020 5:00 -1.0 99 0.0 0 0.0 12.3 44.4 2
26/03/2020 5:10 -1.5 99 0.0 0 0.0 13.2 47.5 2
26/03/2020 5:20 -1.6 99 0.0 0 0.0 13.4 48.1 1
26/03/2020 5:30 -1.8 99 0.0 0 0.0 12.7 45.6 2
26/03/2020 5:40 -1.7 99 0.0 0 0.0 13.0 46.8 3
26/03/2020 5:50 -1.6 99 0.0 0 0.0 12.7 45.9 5
26/03/2020 6:00 -1.6 98 2.3 0 0.0 13.0 46.9 3
26/03/2020 6:10 -1.8 99 11.8 0 0.0 14.1 50.8 4
26/03/2020 6:20 -1.8 99 17.7 0 0.0 13.8 49.5 1
26/03/2020 6:30 -1.6 98 21.5 0 0.0 13.8 49.6 3
26/03/2020 6:40 -1.5 98 22.8 0 0.0 15.1 54.5 3
26/03/2020 6:50 -1.8 97 37.1 0 0.0 16.3 58.7 2
26/03/2020 7:00 -1.8 97 53.8 0 0.0 16.1 58.1 1
26/03/2020 7:10 -2.0 95 83.8 118 0.0 16.8 60.3 359
26/03/2020 7:20 -2.0 94 131.6 248 0.0 16.5 59.3 4
26/03/2020 7:30 -2.1 92 120.5 124 0.0 16.8 60.4 6
26/03/2020 7:40 -2.2 93 136.7 98 0.0 15.6 56.0 2
26/03/2020 7:50 -2.0 92 124.9 60 0.0 15.2 54.6 359
26/03/2020 8:00 -2.0 92 115.9 0 0.0 14.2 51.2 2
26/03/2020 8:10 -1.8 92 137.6 18 0.0 13.0 46.8 360
26/03/2020 8:20 -2.0 92 85.6 0 0.0 12.9 46.5 360
26/03/2020 8:30 -1.9 92 112.6 40 0.0 12.8 46.0 2
26/03/2020 8:40 -1.8 91 119.0 14 0.0 13.0 46.6 1
26/03/2020 8:50 -1.8 89 141.7 0 0.0 12.6 45.3 11
26/03/2020 9:00 -1.7 88 244.4 104 0.0 13.4 48.2 10
26/03/2020 9:10 -1.6 83 352.9 286 0.0 14.0 50.4 7
26/03/2020 9:20 -1.0 82 589.5 528 0.0 15.6 56.2 5
26/03/2020 9:30 -1.4 77 387.3 226 0.0 16.7 60.2 359
26/03/2020 9:40 -1.3 72 443.3 332 0.0 16.0 57.6 358
26/03/2020 9:50 -1.2 72 490.9 342 0.0 14.4 51.8 358
26/03/2020 10:00 0.0 69 735.8 566 0.0 13.1 47.3 1
26/03/2020 10:10 -0.1 66 676.7 516 0.0 11.8 42.5 5
26/03/2020 10:20 0.2 59 785.2 600 0.0 11.6 41.8 6
26/03/2020 10:30 0.2 57 783.3 600 0.0 12.1 43.6 10
26/03/2020 10:40 -0.1 52 721.5 536 0.0 11.5 41.3 6
26/03/2020 10:50 1.0 52 789.1 592 0.0 9.6 34.7 3
26/03/2020 11:00 1.0 49 819.0 600 0.0 10.9 39.2 5
26/03/2020 11:10 1.1 48 836.0 600 0.0 12.2 44.0 6
26/03/2020 11:20 1.2 50 848.0 600 0.0 12.4 44.6 8
26/03/2020 11:30 1.7 49 851.0 600 0.0 11.2 40.2 8
26/03/2020 11:40 1.9 46 855.0 600 0.0 11.8 42.4 3
26/03/2020 11:50 2.3 43 861.0 600 0.0 11.1 39.8 10
26/03/2020 12:00 3.0 42 860.0 600 0.0 10.0 35.9 9
26/03/2020 12:10 3.1 41 856.0 600 0.0 7.8 28.1 9
26/03/2020 12:20 2.9 42 859.0 600 0.0 9.0 32.4 23
26/03/2020 12:30 3.2 42 857.0 600 0.0 9.5 34.3 23
26/03/2020 12:40 3.4 38 856.0 600 0.0 8.9 32.0 28
26/03/2020 12:50 3.5 39 852.0 600 0.0 8.1 29.2 34
26/03/2020 13:00 3.5 39 845.0 600 0.0 8.4 30.2 29
26/03/2020 13:10 3.6 39 834.0 600 0.0 7.8 27.9 38
26/03/2020 13:20 3.0 40 815.0 600 0.0 9.4 33.7 31
26/03/2020 13:30 3.3 40 794.4 600 0.0 7.5 27.1 29
26/03/2020 13:40 2.9 43 781.9 600 0.0 6.5 23.4 40
26/03/2020 13:50 3.6 42 764.7 600 0.0 7.9 28.3 29
26/03/2020 14:00 3.7 43 738.6 600 0.0 6.2 22.4 33
26/03/2020 14:10 3.5 46 728.8 600 0.0 6.6 23.7 32
26/03/2020 14:20 4.0 43 715.5 600 0.0 4.8 17.2 26
26/03/2020 14:30 3.8 42 693.8 600 0.0 7.1 25.5 6
26/03/2020 14:40 3.8 41 671.3 600 0.0 7.4 26.7 2
26/03/2020 14:50 3.8 43 646.7 600 0.0 7.9 28.4 358
26/03/2020 15:00 3.5 42 623.1 600 0.0 8.3 29.9 359
26/03/2020 15:10 3.2 47 595.4 600 0.0 9.3 33.4 347
26/03/2020 15:20 2.9 47 573.5 600 0.0 10.3 37.2 4
26/03/2020 15:30 3.0 44 378.9 376 0.0 9.5 34.3 8
26/03/2020 15:40 2.9 46 284.5 394 0.0 10.5 37.9 4
26/03/2020 15:50 2.6 47 198.4 168 0.0 11.0 39.5 6
26/03/2020 16:00 2.3 44 219.1 228 0.0 12.0 43.3 7
26/03/2020 16:10 1.9 48 409.9 600 0.0 13.1 47.1 3
26/03/2020 16:20 1.5 48 179.9 286 0.0 13.6 48.8 1
26/03/2020 16:30 1.8 50 137.1 30 0.0 13.1 47.0 3
26/03/2020 16:40 1.4 53 210.2 396 0.0 12.8 46.0 4
26/03/2020 16:50 1.6 53 281.3 600 0.0 12.4 44.6 353
26/03/2020 17:00 1.2 56 247.6 600 0.0 12.1 43.6 0
26/03/2020 17:10 0.7 57 225.1 600 0.0 11.5 41.3 3
26/03/2020 17:20 0.1 60 175.6 600 0.0 11.6 41.6 2
26/03/2020 17:30 -0.3 62 144.0 600 0.0 12.5 45.1 4
26/03/2020 17:40 -0.4 63 113.3 596 0.0 14.8 53.3 4
26/03/2020 17:50 -0.6 65 85.9 592 0.0 15.7 56.4 4
26/03/2020 18:00 -0.7 67 63.1 600 0.0 14.7 52.9 6
26/03/2020 18:10 -1.2 67 40.5 600 0.0 13.5 48.7 4
26/03/2020 18:20 -1.5 69 23.9 76 0.0 13.1 47.0 6
26/03/2020 18:30 -1.6 72 12.2 0 0.0 13.3 48.0 5
26/03/2020 18:40 -1.9 73 0.0 0 0.0 13.7 49.5 2
26/03/2020 18:50 -2.3 77 0.0 0 0.0 12.5 45.0 1
26/03/2020 19:00 -2.3 79 0.0 0 0.0 13.1 47.2 1
26/03/2020 19:10 -2.5 79 0.0 0 0.0 13.3 48.0 1
26/03/2020 19:20 -2.5 80 0.0 0 0.0 13.7 49.4 1
26/03/2020 19:30 -2.8 82 0.0 0 0.0 13.0 46.7 1
26/03/2020 19:40 -2.7 83 0.0 0 0.0 10.9 39.1 2
26/03/2020 19:50 -2.5 83 0.0 0 0.0 10.8 38.7 3
26/03/2020 20:00 -2.6 82 0.0 0 0.0 10.5 37.9 4
26/03/2020 20:10 -3.0 83 0.0 0 0.0 10.6 38.1 4
26/03/2020 20:20 -2.9 84 0.0 0 0.0 9.9 35.8 7
26/03/2020 20:30 -2.8 83 0.0 0 0.0 9.3 33.6 10
26/03/2020 20:40 -2.9 84 0.0 0 0.0 9.8 35.4 11
26/03/2020 20:50 -2.9 85 0.0 0 0.0 8.7 31.3 9
26/03/2020 21:00 -2.5 81 0.0 0 0.0 8.0 28.6 13
26/03/2020 21:10 -2.5 82 0.0 0 0.0 7.9 28.6 22
26/03/2020 21:20 -2.5 83 0.0 0 0.0 6.6 23.8 25
26/03/2020 21:30 -2.6 82 0.0 0 0.0 5.8 20.8 23
26/03/2020 21:40 -2.5 82 0.0 0 0.0 5.3 18.9 33
26/03/2020 21:50 -2.5 83 0.0 0 0.0 4.6 16.5 43
26/03/2020 22:00 -2.5 83 0.0 0 0.0 3.1 11.3 52
26/03/2020 22:10 -2.0 81 0.0 0 0.0 2.5 8.9 91
26/03/2020 22:20 -1.8 81 0.0 0 0.0 2.3 8.2 121
26/03/2020 22:30 -2.0 82 0.0 0 0.0 2.3 8.1 149
26/03/2020 22:40 -1.8 89 0.0 0 0.0 2.3 8.2 136
26/03/2020 22:50 -2.0 82 0.0 0 0.0 1.6 5.7 121
26/03/2020 23:00 -1.8 85 0.0 0 0.0 1.6 5.8 106
26/03/2020 23:10 -1.4 84 0.0 0 0.0 2.5 9.0 140
26/03/2020 23:20 -1.8 84 0.0 0 0.0 1.5 5.5 154
26/03/2020 23:30 -1.6 83 0.0 0 0.0 3.1 11.0 154
26/03/2020 23:40 -1.6 83 0.0 0 0.0 3.0 10.6 148
26/03/2020 23:50 -1.4 87 0.0 0 0.0 3.4 12.2 150
Anterior Página 1 de 1 Siguiente
Los datos de precipitación registrados en estaciones que están en cumbres son inferiores a lo real, como consecuencia del efecto del viento y de la nieve.


NOTA: Tipo de datos según el color:
   - Valores diarios o 10 minutos correctos
   - Valores diarios calculados a partir de un número de datos 10 minutos menor que 144 y mayor que 120, o de un número de datos semihorarios menor que 48 y mayor que 40 (caso de las estaciones de INTIA y del Ministerio)
   - Valores diez minutos estimados


Contacto        Enlaces        Aviso legal